Time;durP1;ratioP1;P1;durP2;ratioP2;P2;SDS_P1;SDS_P2;PMS_P1;PMS_P2;Temp;Humidity;BMP_temperature;BMP_pressure;BME280_temperature;BME280_humidity;BME280_pressure;Samples;Min_cycle;Max_cycle;Signal;HPM_P1;HPM_P2
2023/01/25 00:02:13;;;;;;;1385.03;57.13;;;-1.00;1.00;-0.60;95254.00;;;;7400862;19;20136;-87
2023/01/25 00:04:40;;;;;;;1158.10;52.97;;;-1.00;1.00;-0.60;95285.00;;;;7401139;19;20137;-87
2023/01/25 00:07:13;;;;;;;1186.00;51.03;;;-1.00;1.00;-0.50;95316.00;;;;7402651;19;20134;-88
2023/01/25 00:09:40;;;;;;;1189.00;51.70;;;-1.00;1.00;-0.60;95294.00;;;;7401986;19;20579;-86
2023/01/25 00:12:13;;;;;;;1243.83;57.20;;;-1.00;1.00;-0.50;95308.00;;;;7402821;19;20121;-87
2023/01/25 00:14:47;;;;;;;1220.57;52.57;;;-1.00;1.00;-0.60;95299.00;;;;7401972;19;20141;-87
2023/01/25 00:17:15;;;;;;;1124.60;50.97;;;-1.00;1.00;-0.50;95310.00;;;;7403045;19;20596;-87
2023/01/25 00:19:49;;;;;;;1036.07;50.93;;;-1.00;1.00;-0.60;95310.00;;;;7402514;19;20466;-87
2023/01/25 00:22:31;;;;;;;1133.13;51.80;;;-1.00;1.00;-0.50;95310.00;;;;7400174;19;20546;-87
2023/01/25 00:25:12;;;;;;;958.13;45.33;;;-1.00;1.00;-0.60;95284.00;;;;7399945;19;20131;-87
2023/01/25 00:27:39;;;;;;;1072.03;48.30;;;-1.00;1.00;-0.60;95269.00;;;;7400850;19;20140;-87
2023/01/25 00:30:13;;;;;;;781.87;41.17;;;-1.00;1.00;-0.70;95295.00;;;;7400739;19;20131;-87
2023/01/25 00:32:53;;;;;;;1270.37;64.30;;;-1.00;1.00;-0.60;95305.00;;;;7393973;19;20180;-87
2023/01/25 00:35:33;;;;;;;1357.50;60.10;;;-1.00;1.00;-0.60;95263.00;;;;7399675;19;20184;-86
2023/01/25 00:38:33;;;;;;;1312.37;63.30;;;-1.00;1.00;-0.60;95259.00;;;;7401898;19;20623;-87
2023/01/25 00:41:00;;;;;;;1144.30;47.40;;;-1.00;1.00;-0.70;95231.00;;;;7400576;19;20588;-87
2023/01/25 00:43:34;;;;;;;1194.20;55.80;;;-1.10;2.00;-0.70;95240.00;;;;7401879;19;20219;-87
2023/01/25 00:46:08;;;;;;;1285.87;56.77;;;-1.10;1.00;-0.70;95239.00;;;;7399451;19;20144;-87
2023/01/25 00:48:35;;;;;;;1448.27;68.50;;;-1.10;1.00;-0.60;95242.00;;;;7401297;19;20145;-88
2023/01/25 00:51:10;;;;;;;1678.87;69.97;;;-1.00;1.00;-0.60;95282.00;;;;7399875;19;20163;-87
2023/01/25 00:53:43;;;;;;;1738.13;80.60;;;-1.00;1.00;-0.70;95249.00;;;;7399848;19;20137;-87
2023/01/25 00:56:16;;;;;;;1079.80;46.37;;;-1.10;1.00;-0.70;95246.00;;;;7401700;19;20144;-87
2023/01/25 00:58:43;;;;;;;1498.50;67.53;;;-1.10;1.00;-0.70;95259.00;;;;7399349;19;20216;-87
2023/01/25 01:01:11;;;;;;;1465.53;65.63;;;-1.10;1.00;-0.70;95237.00;;;;7398378;19;20583;-87
2023/01/25 01:03:45;;;;;;;1202.50;50.70;;;-1.10;1.00;-0.70;95278.00;;;;7401467;19;20148;-87
2023/01/25 01:06:19;;;;;;;892.70;44.70;;;-1.00;1.00;-0.70;95249.00;;;;7401232;19;20193;-87
2023/01/25 01:08:46;;;;;;;1279.50;58.47;;;-1.00;1.00;-0.70;95218.00;;;;7399862;19;20153;-87
2023/01/25 01:11:20;;;;;;;1169.40;55.23;;;-1.00;1.00;-0.60;95258.00;;;;7397849;19;20196;-87
2023/01/25 01:13:48;;;;;;;1104.60;52.30;;;-1.10;1.00;-0.50;95266.00;;;;7398990;19;20136;-87
2023/01/25 01:16:24;;;;;;;1030.90;49.40;;;-1.00;1.00;-0.50;95221.00;;;;7401417;19;20161;-87
2023/01/25 01:18:57;;;;;;;1028.30;48.10;;;-1.00;1.00;-0.60;95285.00;;;;7400841;19;20141;-87
2023/01/25 01:21:45;;;;;;;1083.73;49.83;;;-1.00;1.00;-0.50;95259.00;;;;7397916;19;20156;-87
2023/01/25 01:24:20;;;;;;;1011.30;48.63;;;-1.00;2.20;-0.60;95269.00;;;;7397748;19;20152;-87
2023/01/25 01:26:54;;;;;;;1325.27;66.27;;;-1.00;1.00;-0.50;95211.00;;;;7399145;19;20142;-87
2023/01/25 01:29:21;;;;;;;1356.07;68.40;;;-1.00;1.00;-0.50;95244.00;;;;7398490;19;20133;-87
2023/01/25 01:31:52;;;;;;;1208.77;62.63;;;-1.00;1.00;-0.50;95269.00;;;;7398494;19;20224;-87
2023/01/25 01:34:26;;;;;;;1143.40;59.83;;;-1.00;1.00;-0.50;95273.00;;;;7397636;19;20176;-87
2023/01/25 01:37:00;;;;;;;999.10;52.80;;;-0.90;2.50;-0.50;95215.00;;;;7398922;19;20153;-87
2023/01/25 01:39:36;;;;;;;890.63;45.27;;;-1.00;1.50;-0.50;95217.00;;;;7397871;19;20156;-87
2023/01/25 01:42:10;;;;;;;1451.33;65.27;;;-0.90;2.20;-0.50;95279.00;;;;7396599;19;20156;-87
2023/01/25 01:44:51;;;;;;;1206.83;63.30;;;-0.90;3.90;-0.50;95244.00;;;;7400271;19;20154;-86
2023/01/25 01:47:39;;;;;;;1506.63;80.20;;;-0.90;5.40;-0.50;95267.00;;;;7399463;19;20137;-87
2023/01/25 01:50:23;;;;;;;1733.53;79.50;;;-0.90;5.90;-0.60;95260.00;;;;7398024;19;20150;-87
2023/01/25 01:52:50;;;;;;;1999.90;79.67;;;-0.90;9.70;-0.50;95272.00;;;;7398268;19;20133;-87
2023/01/25 01:55:24;;;;;;;1999.90;109.03;;;-0.90;11.70;-0.50;95254.00;;;;7398915;19;20202;-87
2023/01/25 01:57:56;;;;;;;1564.07;72.60;;;-0.90;13.00;-0.60;95280.00;;;;7398171;19;20185;-87
2023/01/25 02:00:36;;;;;;;1742.53;79.93;;;-0.90;14.10;-0.50;95275.00;;;;7399580;19;20147;-85
2023/01/25 02:03:03;;;;;;;1999.90;92.10;;;-0.90;15.00;-0.60;95276.00;;;;7389886;19;20264;-75
2023/01/25 02:06:03;;;;;;;1999.90;92.40;;;-0.90;14.50;-0.60;95273.00;;;;7399504;19;20140;-75
2023/01/25 02:08:35;;;;;;;1807.13;79.77;;;-0.90;16.70;-0.60;95280.00;;;;7396974;19;20177;-74
2023/01/25 02:11:11;;;;;;;1638.53;75.23;;;-0.90;18.60;-0.60;95266.00;;;;7397031;19;20152;-74
2023/01/25 02:13:47;;;;;;;1999.90;93.23;;;-0.90;18.90;-0.60;95272.00;;;;7397510;19;20591;-75
2023/01/25 02:16:26;;;;;;;1340.00;53.43;;;-0.90;17.20;-0.60;95268.00;;;;7399452;19;20132;-75
2023/01/25 02:18:56;;;;;;;1527.60;70.73;;;-0.90;18.20;-0.60;95264.00;;;;7398460;19;20129;-75
2023/01/25 02:21:39;;;;;;;1535.67;72.47;;;-1.00;18.00;-0.60;95256.00;;;;7395593;19;20144;-75
2023/01/25 02:24:21;;;;;;;1556.77;67.47;;;-1.00;17.70;-0.50;95255.00;;;;7396977;19;20180;-75
2023/01/25 02:26:55;;;;;;;1673.27;72.90;;;-1.00;19.40;-0.50;95257.00;;;;7397036;19;20133;-75
2023/01/25 02:29:29;;;;;;;1043.30;47.87;;;-1.00;18.90;-0.60;95249.00;;;;7397252;19;20619;-75
2023/01/25 02:32:04;;;;;;;1108.40;52.67;;;-1.00;19.00;-0.70;95241.00;;;;7398369;19;20610;-74
2023/01/25 02:34:32;;;;;;;1083.17;53.80;;;-1.00;19.30;-0.70;95230.00;;;;7397133;19;20142;-75
2023/01/25 02:37:05;;;;;;;1794.00;78.80;;;-1.00;19.70;-0.60;95242.00;;;;7398573;19;20494;-75
2023/01/25 02:39:32;;;;;;;1224.73;57.40;;;-1.00;22.20;-0.60;95256.00;;;;7396551;19;20148;-74
2023/01/25 02:42:06;;;;;;;1340.70;63.07;;;-1.00;20.50;-0.50;95257.00;;;;7397853;19;20133;-75
2023/01/25 02:44:41;;;;;;;1397.00;57.80;;;-1.00;21.90;-0.50;95254.00;;;;7397920;19;20152;-75
2023/01/25 02:47:08;;;;;;;1151.63;51.27;;;-1.00;19.90;-0.60;95246.00;;;;7403877;19;20123;-75
2023/01/25 02:49:37;;;;;;;1396.77;54.10;;;-1.00;19.60;-0.60;95252.00;;;;7403568;19;20559;-75
2023/01/25 02:52:10;;;;;;;1230.63;56.67;;;-1.00;20.30;-0.60;95225.00;;;;7405394;19;20611;-75
2023/01/25 02:54:44;;;;;;;1071.07;53.27;;;-1.00;20.10;-0.60;95245.00;;;;7405507;19;20137;-75
2023/01/25 02:57:12;;;;;;;1131.30;57.00;;;-1.00;21.10;-0.60;95241.00;;;;7405899;19;20136;-75
2023/01/25 02:59:39;;;;;;;1392.83;55.67;;;-1.00;22.00;-0.50;95223.00;;;;7403498;19;20619;-75
2023/01/25 03:02:13;;;;;;;1098.33;47.70;;;-1.00;24.00;-0.40;95231.00;;;;7400973;19;20160;-75
2023/01/25 03:04:53;;;;;;;1068.50;46.40;;;-1.00;23.20;-0.50;95240.00;;;;7404279;19;20587;-75
2023/01/25 03:07:20;;;;;;;1171.03;54.30;;;-1.00;22.60;-0.50;95229.00;;;;7405138;19;20131;-74
2023/01/25 03:09:53;;;;;;;1362.77;56.77;;;-1.00;24.20;-0.50;95237.00;;;;7404039;19;20173;-75
2023/01/25 03:12:20;;;;;;;1183.43;52.63;;;-1.00;24.20;-0.50;95228.00;;;;7404676;19;20153;-75
2023/01/25 03:14:53;;;;;;;1039.70;46.80;;;-1.00;23.00;-0.60;95208.00;;;;7404714;19;20148;-75
2023/01/25 03:17:30;;;;;;;1327.63;60.07;;;-0.90;26.40;-0.60;95223.00;;;;7404183;19;20121;-75
2023/01/25 03:19:57;;;;;;;877.63;41.30;;;-1.00;28.20;-0.70;95219.00;;;;7403973;19;20152;-75
2023/01/25 03:22:30;;;;;;;1663.37;69.90;;;-1.00;29.30;-0.60;95221.00;;;;7403204;19;20655;-75
2023/01/25 03:24:57;;;;;;;1517.97;65.90;;;-1.00;29.60;-0.50;95214.00;;;;7402750;19;20663;-75
2023/01/25 03:27:31;;;;;;;1169.17;54.80;;;-1.00;31.40;-0.60;95218.00;;;;7403347;19;20345;-75
2023/01/25 03:30:07;;;;;;;1348.80;54.50;;;-1.00;30.10;-0.60;95212.00;;;;7403012;19;20633;-75
2023/01/25 03:32:40;;;;;;;980.50;51.07;;;-1.00;31.80;-0.50;95185.00;;;;7401281;19;20135;-75
2023/01/25 03:35:07;;;;;;;1245.43;53.53;;;-1.00;30.80;-0.50;95196.00;;;;7404795;19;20139;-75
2023/01/25 03:37:41;;;;;;;1106.37;46.03;;;-1.00;31.50;-0.60;95203.00;;;;7403336;19;20494;-75
2023/01/25 03:40:09;;;;;;;937.83;42.03;;;-1.00;33.80;-0.50;95209.00;;;;7402906;19;20144;-75
2023/01/25 03:42:43;;;;;;;1012.67;46.73;;;-1.00;34.60;-0.50;95205.00;;;;7401041;19;20184;-75
2023/01/25 03:45:17;;;;;;;1108.07;48.63;;;-1.00;33.10;-0.50;95193.00;;;;7401919;19;20484;-75
2023/01/25 03:47:53;;;;;;;1168.50;49.93;;;-1.00;34.30;-0.50;95198.00;;;;7403875;19;20136;-74
2023/01/25 03:50:27;;;;;;;1129.73;49.90;;;-1.00;35.20;-0.50;95213.00;;;;7402660;19;20140;-75
2023/01/25 03:56:07;;;;;;;889.70;41.87;;;-1.00;36.80;-0.60;95210.00;;;;7403012;19;20583;-74
2023/01/25 03:58:41;;;;;;;1092.50;47.73;;;-0.90;37.10;-0.40;95187.00;;;;7401343;19;20139;-75
2023/01/25 04:01:08;;;;;;;921.07;41.10;;;-0.90;39.60;-0.60;95203.00;;;;7399629;19;20145;-74
2023/01/25 04:03:35;;;;;;;1381.03;61.57;;;-0.90;38.80;-0.50;95208.00;;;;7399407;19;20184;-74
2023/01/25 04:06:09;;;;;;;1188.27;55.60;;;-0.90;43.90;-0.50;95193.00;;;;7402215;19;20132;-75
2023/01/25 04:08:36;;;;;;;1341.10;62.30;;;-0.90;44.20;-0.60;95183.00;;;;7402959;19;20188;-74
2023/01/25 04:11:10;;;;;;;1175.67;52.93;;;-0.90;44.50;-0.70;95196.00;;;;7401525;19;20529;-74
2023/01/25 04:13:44;;;;;;;1290.50;55.30;;;-0.90;45.40;-0.50;95214.00;;;;7402013;19;20139;-75
2023/01/25 04:16:18;;;;;;;1386.63;62.17;;;-0.90;44.80;-0.50;95206.00;;;;7402142;19;20216;-75
2023/01/25 04:18:45;;;;;;;1042.00;49.53;;;-0.90;46.20;-0.60;95195.00;;;;7402922;19;20148;-75
2023/01/25 04:21:19;;;;;;;1293.97;59.80;;;-0.90;45.50;-0.50;95209.00;;;;7402258;19;20198;-74
2023/01/25 04:23:46;;;;;;;1576.03;67.20;;;-0.90;47.20;-0.60;95194.00;;;;7401185;19;20507;-75
2023/01/25 04:26:21;;;;;;;1659.67;62.83;;;-0.90;46.40;-0.40;95182.00;;;;7402362;19;20538;-75
2023/01/25 04:28:49;;;;;;;1327.67;63.93;;;-0.90;48.30;-0.40;95195.00;;;;7399694;19;20490;-75
2023/01/25 04:31:22;;;;;;;1678.60;71.17;;;-0.90;48.50;-0.40;95195.00;;;;7401604;19;20472;-75
2023/01/25 04:33:49;;;;;;;1375.00;64.90;;;-0.90;47.60;-0.40;95178.00;;;;7401298;19;20542;-75
2023/01/25 04:36:23;;;;;;;1194.23;56.77;;;-0.90;47.60;-0.50;95183.00;;;;7400645;19;20148;-75
2023/01/25 04:38:50;;;;;;;1242.67;57.20;;;-0.90;49.20;-0.50;95190.00;;;;7400560;19;20505;-75
2023/01/25 04:41:28;;;;;;;1249.37;58.97;;;-0.90;50.60;-0.40;95173.00;;;;7400487;19;20137;-75
2023/01/25 04:43:55;;;;;;;1285.80;56.37;;;-0.90;50.10;-0.50;95167.00;;;;7400938;19;20141;-75
2023/01/25 04:46:29;;;;;;;1257.50;53.10;;;-0.90;49.90;-0.50;95174.00;;;;7400535;19;20147;-74
2023/01/25 04:49:02;;;;;;;840.50;42.40;;;-0.90;50.90;-0.50;95188.00;;;;7395516;19;20481;-75
2023/01/25 04:51:36;;;;;;;1070.53;49.03;;;-0.90;51.10;-0.50;95186.00;;;;7398963;19;20212;-75
2023/01/25 04:54:09;;;;;;;1321.37;58.47;;;-0.90;53.80;-0.50;95175.00;;;;7401431;19;20133;-75
2023/01/25 04:56:36;;;;;;;1066.03;45.23;;;-0.90;57.00;-0.50;95177.00;;;;7401801;19;20121;-75
2023/01/25 04:59:10;;;;;;;933.23;45.90;;;-0.90;54.90;-0.50;95175.00;;;;7398964;19;20611;-75
2023/01/25 05:01:44;;;;;;;1101.07;47.43;;;-0.90;57.20;-0.50;95175.00;;;;7397381;19;20183;-75
2023/01/25 05:04:18;;;;;;;1066.53;56.40;;;-0.90;74.80;-0.50;95179.00;;;;7397759;19;20160;-75
2023/01/25 05:06:51;;;;;;;916.20;44.10;;;-0.90;54.60;-0.50;95178.00;;;;7399571;19;20176;-75
2023/01/25 05:09:24;;;;;;;1007.20;41.60;;;-0.90;56.30;-0.50;95187.00;;;;7399017;19;20161;-75
2023/01/25 05:11:58;;;;;;;1003.27;42.17;;;-0.90;56.70;-0.50;95159.00;;;;7400789;19;20156;-75
2023/01/25 05:14:25;;;;;;;573.47;33.20;;;-0.90;56.70;-0.50;95154.00;;;;7397986;19;20164;-74
2023/01/25 05:16:59;;;;;;;290.67;26.40;;;-0.90;57.00;-0.50;95173.00;;;;7398862;19;20156;-74
2023/01/25 05:19:26;;;;;;;940.03;42.67;;;-1.00;59.50;-0.60;95164.00;;;;7398701;19;20462;-73
2023/01/25 05:22:06;;;;;;;682.40;36.73;;;-1.00;55.90;-0.60;95171.00;;;;7399619;19;20129;-74
2023/01/25 05:24:44;;;;;;;1038.27;41.50;;;-0.90;58.60;-0.50;95128.00;;;;7400697;19;20251;-74
2023/01/25 05:27:20;;;;;;;718.27;39.57;;;-0.90;64.10;-0.60;95172.00;;;;7398105;19;20140;-75
2023/01/25 05:29:48;;;;;;;469.60;28.53;;;-0.90;61.90;-0.70;95146.00;;;;7398138;19;20133;-74
2023/01/25 05:32:23;;;;;;;549.00;31.80;;;-0.90;64.60;-0.70;95144.00;;;;7397940;19;20148;-73
2023/01/25 05:34:51;;;;;;;551.13;31.63;;;-0.90;63.70;-0.70;95175.00;;;;7398733;19;20160;-74
2023/01/25 05:37:20;;;;;;;736.83;35.57;;;-1.00;68.70;-0.60;95173.00;;;;7398296;19;20117;-73
2023/01/25 05:39:54;;;;;;;593.50;31.97;;;-1.00;69.80;-0.60;95184.00;;;;7399629;19;20472;-74
2023/01/25 05:42:21;;;;;;;346.27;27.60;;;-1.00;69.90;-0.70;95177.00;;;;7396651;19;20156;-74
2023/01/25 05:44:54;;;;;;;681.00;34.83;;;-1.00;75.90;-0.60;95174.00;;;;7400374;19;20149;-74
2023/01/25 05:47:23;;;;;;;775.90;40.50;;;-1.10;72.20;-0.80;95176.00;;;;7399967;19;20140;-74
2023/01/25 05:49:58;;;;;;;709.07;43.27;;;-1.10;71.90;-0.50;95193.00;;;;7400014;19;20124;-74
2023/01/25 05:52:26;;;;;;;907.07;50.27;;;-1.10;76.10;-0.60;95163.00;;;;7399204;19;20134;-74
2023/01/25 05:55:15;;;;;;;1004.50;54.13;;;-1.10;73.60;-0.60;95181.00;;;;7396384;19;20149;-74
2023/01/25 05:57:49;;;;;;;1478.67;63.87;;;-1.00;76.70;-0.60;95176.00;;;;7399478;19;20133;-74
2023/01/25 06:00:23;;;;;;;715.70;37.03;;;-1.00;82.40;-0.60;95168.00;;;;7396638;19;20509;-74
2023/01/25 06:02:50;;;;;;;563.27;36.13;;;-1.00;83.10;-0.50;95168.00;;;;7397342;19;20187;-73
2023/01/25 06:05:29;;;;;;;588.03;34.83;;;-1.00;88.10;-0.50;95156.00;;;;7396741;19;20503;-74
2023/01/25 06:08:03;;;;;;;825.20;44.00;;;-1.00;87.20;-0.50;95173.00;;;;7396856;19;20152;-74
2023/01/25 06:10:38;;;;;;;969.87;47.10;;;-1.00;88.10;-0.60;95164.00;;;;7398553;19;21028;-74
2023/01/25 06:13:12;;;;;;;1067.77;48.80;;;-1.00;91.20;-0.50;95165.00;;;;7399023;19;20157;-74
2023/01/25 06:15:57;;;;;;;1168.70;52.70;;;-1.00;92.60;-0.60;95165.00;;;;7399514;19;20150;-74
2023/01/25 06:18:32;;;;;;;788.03;40.33;;;-1.10;93.80;-0.60;95141.00;;;;7397664;19;20157;-73
2023/01/25 06:21:01;;;;;;;457.73;28.20;;;-1.10;95.00;-0.70;95155.00;;;;7397702;19;20584;-73
2023/01/25 06:23:35;;;;;;;875.53;45.37;;;-1.10;97.20;-0.70;95146.00;;;;7392459;19;20646;-73
2023/01/25 06:26:13;;;;;;;930.60;41.37;;;-1.10;96.50;-0.60;95151.00;;;;7393278;19;20631;-74
2023/01/25 06:28:41;;;;;;;1307.77;60.53;;;-1.10;99.60;-0.70;95150.00;;;;7394828;19;20137;-74
2023/01/25 06:31:17;;;;;;;994.37;52.57;;;-1.10;98.00;-0.60;95141.00;;;;7395550;19;20135;-73
2023/01/25 06:33:49;;;;;;;744.63;38.37;;;-1.10;98.20;-0.60;95148.00;;;;7395069;19;20600;-73
2023/01/25 06:36:25;;;;;;;893.73;50.60;;;-1.10;99.90;-0.60;95144.00;;;;7392489;19;20638;-74
2023/01/25 06:38:52;;;;;;;851.37;48.00;;;-1.10;99.90;-0.60;95139.00;;;;7393574;19;20147;-73
2023/01/25 06:41:26;;;;;;;684.80;56.27;;;-1.10;99.90;-0.60;95144.00;;;;7393339;19;20153;-73
2023/01/25 06:43:54;;;;;;;1108.67;64.20;;;-1.10;99.90;-0.60;95127.00;;;;7388986;19;20125;-73
2023/01/25 06:46:22;;;;;;;1096.70;58.80;;;-1.10;99.90;-0.60;95138.00;;;;7391409;19;20611;-73
2023/01/25 06:48:55;;;;;;;783.13;48.73;;;-1.10;99.90;-0.60;95145.00;;;;7393226;19;20482;-74
2023/01/25 06:51:22;;;;;;;429.40;30.00;;;-1.10;99.90;-0.70;95137.00;;;;7389460;19;20196;-73
2023/01/25 06:53:56;;;;;;;434.10;27.37;;;-1.10;99.90;-0.70;95132.00;;;;7390950;19;20145;-73
2023/01/25 06:56:31;;;;;;;270.43;21.77;;;-1.10;99.90;-0.80;95104.00;;;;7393683;19;20139;-75
2023/01/25 06:59:05;;;;;;;554.23;31.60;;;-1.10;99.90;-0.70;95135.00;;;;7391310;19;20132;-74
2023/01/25 07:01:32;;;;;;;635.60;42.03;;;-1.20;99.90;-0.70;95125.00;;;;7388154;19;20605;-73
2023/01/25 07:04:10;;;;;;;1075.80;61.80;;;-1.20;99.90;-0.70;95131.00;;;;7390496;19;20143;-74
2023/01/25 07:06:44;;;;;;;700.97;42.80;;;-1.20;99.90;-0.70;95124.00;;;;7393454;19;20184;-74
2023/01/25 07:09:22;;;;;;;618.07;41.17;;;-1.20;99.90;-0.70;95118.00;;;;7393561;19;20150;-74
2023/01/25 07:11:57;;;;;;;893.80;55.53;;;-1.20;99.90;-0.70;95131.00;;;;7390014;19;20161;-74
2023/01/25 07:14:32;;;;;;;626.60;43.43;;;-1.20;99.90;-0.70;95109.00;;;;7393943;19;20129;-73
2023/01/25 07:17:05;;;;;;;765.60;41.13;;;-1.20;99.90;-0.50;95127.00;;;;7392623;19;20156;-74
2023/01/25 07:19:38;;;;;;;516.43;32.10;;;-1.20;99.90;-0.50;95127.00;;;;7392858;19;20151;-73
2023/01/25 07:22:11;;;;;;;607.93;37.17;;;-1.20;99.90;-0.60;95120.00;;;;7391213;19;20473;-73
2023/01/25 07:24:38;;;;;;;938.73;54.77;;;-1.20;99.90;-0.70;95093.00;;;;7388852;19;20455;-73
2023/01/25 07:27:11;;;;;;;835.27;47.73;;;-1.20;99.90;-0.70;95089.00;;;;7387286;19;20129;-73
2023/01/25 07:29:44;;;;;;;1190.43;63.77;;;-1.20;99.90;-0.70;95101.00;;;;7390920;19;20137;-74
2023/01/25 07:32:18;;;;;;;1066.40;61.17;;;-1.20;99.90;-0.60;95117.00;;;;7390912;19;20133;-72
2023/01/25 07:34:45;;;;;;;1664.13;80.97;;;-1.20;99.90;-0.60;95105.00;;;;7400003;19;20144;-74
2023/01/25 07:37:19;;;;;;;1116.50;66.70;;;-1.10;99.90;-0.60;95125.00;;;;7401305;19;20139;-75
2023/01/25 07:39:49;;;;;;;1376.20;74.40;;;-1.10;99.90;-0.50;95087.00;;;;7401492;19;20165;-74
2023/01/25 07:42:24;;;;;;;715.17;50.00;;;-1.10;99.90;-0.60;95116.00;;;;7401153;19;20579;-73
2023/01/25 07:44:52;;;;;;;972.03;55.37;;;-1.10;99.90;-0.60;95113.00;;;;7401868;19;20662;-75
2023/01/25 07:47:26;;;;;;;901.77;50.00;;;-1.00;99.90;-0.50;95106.00;;;;7403293;19;20184;-74
2023/01/25 07:49:53;;;;;;;423.60;32.83;;;-1.00;99.90;-0.50;95117.00;;;;7402548;19;20478;-75
2023/01/25 07:52:27;;;;;;;533.37;37.33;;;-1.00;99.90;-0.50;95120.00;;;;7402094;19;20136;-74
2023/01/25 07:55:00;;;;;;;841.07;53.77;;;-1.00;99.90;-0.40;95121.00;;;;7402663;19;20141;-74
2023/01/25 07:57:34;;;;;;;1352.77;70.53;;;-1.00;99.90;-0.40;95103.00;;;;7403208;19;20153;-74
2023/01/25 08:00:09;;;;;;;860.60;53.83;;;-0.90;99.90;-0.40;95102.00;;;;7403517;19;20516;-74
2023/01/25 08:02:42;;;;;;;921.33;49.27;;;-0.90;99.90;-0.40;95116.00;;;;7400843;19;20193;-74
2023/01/25 08:05:24;;;;;;;672.53;46.63;;;-0.90;99.90;-0.30;95096.00;;;;7401219;19;20587;-74
2023/01/25 08:07:57;;;;;;;998.53;54.00;;;-0.80;99.90;-0.20;95111.00;;;;7402200;19;20124;-74
2023/01/25 08:10:31;;;;;;;903.33;54.13;;;-0.80;99.90;-0.20;95117.00;;;;7402259;19;20145;-74
2023/01/25 08:12:58;;;;;;;1251.13;67.03;;;-0.70;99.90;-0.10;95099.00;;;;7401108;19;20129;-74
2023/01/25 08:15:31;;;;;;;970.97;58.93;;;-0.70;99.90;-0.20;95047.00;;;;7403388;19;20460;-74
2023/01/25 08:17:59;;;;;;;907.83;57.13;;;-0.70;99.90;-0.10;95097.00;;;;7402741;19;20144;-74
2023/01/25 08:20:34;;;;;;;430.57;38.37;;;-0.70;99.90;0.00;95111.00;;;;7401690;19;20136;-74
2023/01/25 08:23:07;;;;;;;755.00;50.20;;;-0.70;99.90;-0.10;95100.00;;;;7401478;19;20181;-74
2023/01/25 08:25:41;;;;;;;380.83;31.93;;;-0.70;99.90;0.00;95096.00;;;;7403591;19;20129;-74
2023/01/25 08:28:15;;;;;;;555.50;41.47;;;-0.60;99.90;0.00;95100.00;;;;7401662;19;20140;-74
2023/01/25 08:30:51;;;;;;;1129.27;61.77;;;-0.50;99.90;0.00;95111.00;;;;7401361;19;20121;-74
2023/01/25 08:33:25;;;;;;;991.83;57.20;;;-0.50;99.90;-0.10;95112.00;;;;7402652;19;20618;-74
2023/01/25 08:35:56;;;;;;;668.10;43.47;;;-0.60;99.90;-0.10;95121.00;;;;7401512;19;20489;-73
2023/01/25 08:38:30;;;;;;;1009.43;59.03;;;-0.60;99.90;0.10;95112.00;;;;7400474;19;20156;-74
2023/01/25 08:41:08;;;;;;;1112.87;57.03;;;-0.50;99.90;-0.20;95106.00;;;;7400217;19;20145;-74
2023/01/25 08:43:44;;;;;;;1667.23;85.43;;;-0.50;99.90;-0.10;95108.00;;;;7396552;19;20165;-74
2023/01/25 08:46:13;;;;;;;1844.97;100.03;;;-0.60;99.90;0.00;95111.00;;;;7402437;19;20226;-74
2023/01/25 08:48:46;;;;;;;1148.17;53.80;;;-0.60;99.90;0.00;95105.00;;;;7401846;19;20131;-74
2023/01/25 08:51:21;;;;;;;1428.27;79.50;;;-0.60;99.90;0.10;95108.00;;;;7400402;19;20150;-73
2023/01/25 08:53:55;;;;;;;1508.23;78.57;;;-0.50;99.90;0.10;95066.00;;;;7401754;19;20132;-74
2023/01/25 08:56:28;;;;;;;1089.20;63.43;;;-0.50;99.90;0.20;95093.00;;;;7400479;19;20165;-74
2023/01/25 08:58:55;;;;;;;753.47;49.87;;;-0.40;99.90;0.20;95091.00;;;;7401419;19;20144;-73
2023/01/25 09:01:29;;;;;;;1475.00;74.07;;;-0.40;99.90;0.30;95083.00;;;;7401175;19;20754;-74
2023/01/25 09:04:03;;;;;;;1192.50;58.83;;;-0.40;99.90;0.30;95070.00;;;;7399256;19;20217;-72
2023/01/25 09:06:44;;;;;;;697.10;41.47;;;-0.40;99.90;0.20;95086.00;;;;7399947;19;20121;-73
2023/01/25 09:09:18;;;;;;;794.37;50.07;;;-0.40;99.90;0.10;95088.00;;;;7399669;19;20449;-73
2023/01/25 09:11:45;;;;;;;817.43;46.27;;;-0.40;99.90;0.20;95084.00;;;;7399459;19;20587;-74
2023/01/25 09:14:18;;;;;;;858.50;46.97;;;-0.30;99.90;0.30;95092.00;;;;7400975;19;20139;-73
2023/01/25 09:16:51;;;;;;;783.80;47.93;;;-0.30;99.90;0.20;95081.00;;;;7399269;19;20137;-73
2023/01/25 09:19:24;;;;;;;1171.73;67.47;;;-0.30;99.90;0.20;95059.00;;;;7399241;19;20149;-73
2023/01/25 09:21:58;;;;;;;365.80;27.37;;;-0.30;99.90;0.40;95085.00;;;;7399906;19;20145;-74
2023/01/25 09:24:33;;;;;;;865.07;54.67;;;-0.30;99.90;0.30;95074.00;;;;7394631;19;20582;-74
2023/01/25 09:27:06;;;;;;;1469.03;74.33;;;-0.20;99.90;0.40;95076.00;;;;7399439;19;20159;-73
2023/01/25 09:29:40;;;;;;;922.27;56.37;;;-0.20;99.90;0.30;95073.00;;;;7396812;19;20137;-74
2023/01/25 09:32:27;;;;;;;941.53;50.40;;;-0.30;99.90;0.30;95062.00;;;;7399238;19;20148;-74
2023/01/25 09:35:05;;;;;;;1562.17;78.83;;;-0.30;99.90;0.10;95061.00;;;;7398868;19;20147;-75
2023/01/25 09:37:38;;;;;;;1286.47;67.90;;;-0.30;99.90;0.40;95069.00;;;;7397758;19;20593;-75
2023/01/25 09:40:18;;;;;;;1276.40;64.93;;;-0.30;99.90;0.10;95063.00;;;;7398665;19;20129;-73
2023/01/25 09:43:11;;;;;;;819.27;50.43;;;-0.30;99.90;-0.10;95078.00;;;;7397988;19;20713;-76
2023/01/25 09:45:46;;;;;;;766.40;42.77;;;-0.30;99.90;0.00;95076.00;;;;7398929;19;20192;-75
2023/01/25 09:48:33;;;;;;;925.27;47.20;;;-0.50;99.90;0.10;95081.00;;;;7398287;19;20120;-75
2023/01/25 09:51:20;;;;;;;997.93;53.87;;;-0.50;99.90;0.20;95067.00;;;;7398027;19;20149;-75
2023/01/25 09:53:56;;;;;;;593.80;36.70;;;-0.40;99.90;0.30;95083.00;;;;7399123;19;20592;-73
2023/01/25 09:56:26;;;;;;;839.27;51.37;;;-0.40;99.90;0.40;95083.00;;;;7399177;19;20134;-75
2023/01/25 09:59:11;;;;;;;899.20;46.03;;;-0.40;99.90;0.10;95061.00;;;;7398684;19;20655;-75
2023/01/25 10:02:04;;;;;;;887.83;47.93;;;-0.40;99.90;0.10;95079.00;;;;7398677;19;20591;-75
2023/01/25 10:04:50;;;;;;;1153.57;65.03;;;-0.30;99.90;-0.20;95064.00;;;;7396336;19;20161;-73
2023/01/25 10:07:57;;;;;;;906.97;51.50;;;-0.40;99.90;-0.20;95075.00;;;;7397102;19;20623;-73
2023/01/25 10:10:42;;;;;;;684.73;40.13;;;-0.60;97.60;0.00;95069.00;;;;7398780;19;20121;-75
2023/01/25 10:13:21;;;;;;;709.27;37.17;;;-0.50;99.90;0.10;95071.00;;;;7398780;19;20120;-73
2023/01/25 10:16:00;;;;;;;806.83;43.50;;;-0.50;50.80;0.40;95075.00;;;;7397070;19;20149;-73
2023/01/25 10:19:30;;;;;;;982.67;49.57;;;-0.30;54.10;0.40;95074.00;;;;7398519;19;20135;-73
2023/01/25 10:22:23;;;;;;;1196.33;59.70;;;-0.40;6.90;0.40;95070.00;;;;7396559;19;20212;-75
2023/01/25 10:25:29;;;;;;;674.07;42.70;;;-0.30;1.00;0.30;95049.00;;;;7395803;19;20129;-75
2023/01/25 10:28:12;;;;;;;1386.60;80.67;;;-0.30;1.00;0.20;95056.00;;;;7396938;19;20133;-75
2023/01/25 10:31:01;;;;;;;1492.87;80.80;;;-0.30;1.00;0.40;95054.00;;;;7395674;19;20169;-73
2023/01/25 10:33:42;;;;;;;1278.13;69.03;;;-0.20;1.00;0.30;95056.00;;;;7399198;19;20146;-73
2023/01/25 10:36:21;;;;;;;1368.23;74.03;;;-0.20;1.00;0.10;95039.00;;;;7396934;19;20165;-74
2023/01/25 10:38:59;;;;;;;1120.97;59.67;;;-0.20;1.00;0.20;95026.00;;;;7397893;19;20595;-73
2023/01/25 10:41:45;;;;;;;1149.93;64.13;;;-0.20;1.00;0.30;95037.00;;;;7396946;19;20147;-73
2023/01/25 10:44:23;;;;;;;1382.90;72.23;;;-0.20;1.00;0.10;95031.00;;;;7396000;19;20613;-73
2023/01/25 10:47:21;;;;;;;1658.80;89.00;;;-0.20;1.00;0.10;95036.00;;;;7397493;19;20137;-73
2023/01/25 10:49:57;;;;;;;1201.53;59.03;;;-0.20;1.00;-0.10;95034.00;;;;7396555;19;20161;-73
2023/01/25 10:52:29;;;;;;;374.70;27.20;;;-0.30;99.90;0.20;95021.00;;;;7397429;19;20755;-73
2023/01/25 10:55:17;;;;;;;1418.07;75.07;;;-0.30;99.90;0.50;95027.00;;;;7396691;19;20465;-73
2023/01/25 10:57:56;;;;;;;1098.00;64.17;;;-0.20;99.90;-0.10;95024.00;;;;7396020;19;20508;-73
2023/01/25 11:00:37;;;;;;;738.07;41.07;;;-0.20;99.90;0.10;95027.00;;;;7395847;19;20125;-73
2023/01/25 11:03:05;;;;;;;1005.70;54.40;;;-0.20;99.90;0.40;95006.00;;;;7396553;19;20148;-73
2023/01/25 11:05:45;;;;;;;522.40;33.43;;;-0.20;99.90;-0.10;95023.00;;;;7396574;19;20603;-73
2023/01/25 11:08:41;;;;;;;1023.50;55.03;;;-0.30;44.10;0.10;95000.00;;;;7400987;19;20140;-73